createdAt,value
2022-10-19T00:01:59.627Z,91.84
2022-10-19T00:04:26.563Z,91.78
2022-10-19T00:06:53.400Z,91.81
2022-10-19T00:09:20.274Z,91.83
2022-10-19T00:11:49.243Z,91.81
2022-10-19T00:14:21.825Z,92.19
2022-10-19T00:16:51.226Z,92.31
2022-10-19T00:19:20.488Z,92.63
2022-10-19T00:21:47.317Z,92.42
2022-10-19T00:24:14.338Z,92.28
2022-10-19T00:26:41.411Z,92.87
2022-10-19T00:29:08.728Z,92.66
2022-10-19T00:31:35.671Z,92.84
2022-10-19T00:34:02.558Z,93.09
2022-10-19T00:36:32.326Z,93.41
2022-10-19T00:38:59.346Z,93.23
2022-10-19T00:41:29.397Z,93.01
2022-10-19T00:44:07.988Z,93.15
2022-10-19T00:46:36.980Z,93.17
2022-10-19T00:49:11.387Z,92.83
2022-10-19T00:51:41.508Z,93.08
2022-10-19T00:54:09.680Z,93.16
2022-10-19T00:56:40.304Z,93.17
2022-10-19T00:59:07.884Z,93.02
2022-10-19T01:01:35.342Z,92.97
2022-10-19T01:04:03.214Z,93.10
2022-10-19T01:06:30.180Z,93.05
2022-10-19T01:08:57.025Z,93.25
2022-10-19T01:11:48.083Z,93.35
2022-10-19T01:14:23.544Z,93.30
2022-10-19T01:16:53.299Z,93.31
2022-10-19T01:19:38.772Z,93.32
2022-10-19T01:22:10.130Z,93.43
2022-10-19T01:24:57.692Z,93.50
2022-10-19T01:27:41.698Z,93.61
2022-10-19T01:30:28.750Z,94.10
2022-10-19T01:33:03.988Z,94.14
2022-10-19T01:36:11.964Z,93.86
2022-10-19T01:38:57.550Z,93.98
2022-10-19T01:41:48.603Z,93.94
2022-10-19T01:44:42.192Z,93.93
2022-10-19T01:47:15.703Z,93.80
2022-10-19T01:50:10.263Z,94.04
2022-10-19T01:52:38.252Z,94.34
2022-10-19T01:55:05.707Z,94.89
2022-10-19T01:57:34.727Z,94.70
2022-10-19T02:00:07.403Z,94.73
2022-10-19T02:02:41.722Z,94.85
2022-10-19T02:05:08.973Z,94.82
2022-10-19T02:07:37.805Z,94.58
2022-10-19T02:10:05.333Z,94.80
2022-10-19T02:12:33.903Z,94.84
2022-10-19T02:15:05.853Z,94.80
2022-10-19T02:17:36.222Z,94.77
2022-10-19T02:20:04.072Z,96.04
2022-10-19T02:22:31.601Z,96.87
2022-10-19T02:24:58.566Z,99.56
2022-10-19T02:27:25.470Z,98.97
2022-10-19T02:29:54.537Z,98.37
2022-10-19T02:32:21.556Z,98.38
2022-10-19T02:34:48.417Z,98.60
2022-10-19T02:37:15.266Z,98.21
2022-10-19T02:39:42.316Z,97.72
2022-10-19T02:42:12.714Z,97.87
2022-10-19T02:45:08.578Z,97.80
2022-10-19T02:47:43.057Z,97.92
2022-10-19T02:50:12.980Z,98.10
2022-10-19T02:52:40.968Z,97.94
2022-10-19T02:55:08.949Z,97.85
2022-10-19T02:57:37.146Z,97.95
2022-10-19T03:00:06.985Z,97.94
2022-10-19T03:02:33.926Z,98.82
2022-10-19T03:05:00.714Z,98.69
2022-10-19T03:07:27.541Z,98.55
2022-10-19T03:09:54.345Z,99.67
2022-10-19T03:12:21.129Z,99.13
2022-10-19T03:14:47.923Z,99.06
2022-10-19T03:17:14.831Z,99.12
2022-10-19T03:19:41.985Z,99.11
2022-10-19T03:22:08.792Z,98.89
2022-10-19T03:24:36.124Z,99.46
2022-10-19T03:27:02.952Z,99.15
2022-10-19T03:29:29.746Z,99.26
2022-10-19T03:31:56.594Z,99.96
2022-10-19T03:34:23.529Z,99.95
2022-10-19T03:36:50.306Z,99.91
2022-10-19T03:39:17.454Z,100.00
2022-10-19T03:41:44.624Z,100.00
2022-10-19T03:44:11.974Z,100.00
2022-10-19T03:46:38.987Z,100.00
2022-10-19T03:49:06.240Z,100.00
2022-10-19T03:51:33.655Z,100.00
2022-10-19T03:54:03.079Z,100.00
2022-10-19T03:56:31.159Z,100.00
2022-10-19T03:59:00.015Z,100.00
2022-10-19T04:01:38.715Z,100.00
2022-10-19T04:04:07.870Z,100.00
2022-10-19T04:06:37.970Z,99.79
2022-10-19T04:09:05.977Z,99.54
2022-10-19T04:11:33.569Z,99.41
2022-10-19T04:14:00.885Z,99.27
2022-10-19T04:16:28.950Z,99.12
2022-10-19T04:18:56.237Z,99.21
2022-10-19T04:21:37.183Z,99.20
2022-10-19T04:24:06.889Z,99.13
2022-10-19T04:26:34.529Z,99.09
2022-10-19T04:29:01.757Z,98.98
2022-10-19T04:31:29.130Z,98.92
2022-10-19T04:33:56.770Z,99.53
2022-10-19T04:36:24.114Z,99.75
2022-10-19T04:38:51.038Z,100.00
2022-10-19T04:41:19.710Z,100.00
2022-10-19T04:43:46.922Z,100.00
2022-10-19T04:46:18.442Z,100.00
2022-10-19T04:48:46.828Z,100.00
2022-10-19T04:51:14.536Z,100.00
2022-10-19T04:53:42.294Z,100.00
2022-10-19T04:56:12.192Z,100.00
2022-10-19T04:58:39.000Z,100.00
2022-10-19T05:01:17.361Z,100.00
2022-10-19T05:03:44.526Z,100.00
2022-10-19T05:06:12.054Z,100.00
2022-10-19T05:08:39.106Z,100.00
2022-10-19T05:11:09.310Z,100.00
2022-10-19T05:13:36.215Z,100.00
2022-10-19T05:16:05.344Z,100.00
2022-10-19T05:18:32.673Z,100.00
2022-10-19T05:21:11.214Z,100.00
2022-10-19T05:23:38.441Z,100.00
2022-10-19T05:26:17.565Z,100.00
2022-10-19T05:28:48.358Z,100.00
2022-10-19T05:31:17.898Z,100.00
2022-10-19T05:33:45.027Z,100.00
2022-10-19T05:36:18.882Z,100.00
2022-10-19T05:38:46.898Z,100.00
2022-10-19T05:41:14.239Z,100.00
2022-10-19T05:43:41.988Z,100.00
2022-10-19T05:46:11.409Z,100.00
2022-10-19T05:48:39.110Z,100.00
2022-10-19T05:51:08.237Z,99.32
2022-10-19T05:53:35.525Z,98.93
2022-10-19T05:56:05.661Z,97.59
2022-10-19T05:58:32.822Z,97.26
2022-10-19T06:01:00.334Z,97.02
2022-10-19T06:03:27.632Z,96.49
2022-10-19T06:05:55.152Z,96.02
2022-10-19T06:08:22.868Z,95.43
2022-10-19T06:10:50.824Z,95.71
2022-10-19T06:13:18.902Z,95.01
2022-10-19T06:15:50.375Z,93.80
2022-10-19T06:18:17.334Z,92.20
2022-10-19T06:20:44.297Z,92.04
2022-10-19T06:23:11.091Z,91.63
2022-10-19T06:25:38.665Z,90.61
2022-10-19T06:28:05.787Z,89.13
2022-10-19T06:30:32.833Z,88.41
2022-10-19T06:33:00.053Z,87.62
2022-10-19T06:35:27.042Z,86.98
2022-10-19T06:37:56.666Z,87.25
2022-10-19T06:40:24.949Z,86.34
2022-10-19T06:42:51.913Z,85.01
2022-10-19T06:45:18.876Z,84.05
2022-10-19T06:50:17.956Z,84.22
2022-10-19T06:52:46.077Z,84.06
2022-10-19T06:55:12.950Z,84.34
2022-10-19T06:57:39.900Z,84.32
2022-10-19T07:00:08.305Z,83.64
2022-10-19T07:02:35.227Z,83.39
2022-10-19T07:05:06.053Z,82.54
2022-10-19T07:07:34.882Z,82.31
2022-10-19T07:10:06.993Z,81.61
2022-10-19T07:12:33.863Z,81.31
2022-10-19T07:15:00.695Z,80.15
2022-10-19T07:17:27.590Z,80.23
2022-10-19T07:19:55.035Z,79.66
2022-10-19T07:22:27.837Z,79.53
2022-10-19T07:24:55.389Z,79.12
2022-10-19T07:27:22.425Z,78.49
2022-10-19T07:29:50.555Z,76.61
2022-10-19T07:32:17.403Z,76.52
2022-10-19T07:34:44.191Z,76.56
2022-10-19T07:37:11.026Z,76.26
2022-10-19T07:39:38.333Z,76.05
2022-10-19T07:42:05.289Z,76.05
2022-10-19T07:44:32.047Z,75.83
2022-10-19T07:46:59.265Z,76.09
2022-10-19T07:49:26.128Z,75.91
2022-10-19T07:51:55.063Z,75.23
2022-10-19T07:54:23.692Z,74.43
2022-10-19T07:56:50.494Z,74.43
2022-10-19T07:59:17.388Z,73.77
2022-10-19T08:01:45.197Z,72.49
2022-10-19T08:06:58.866Z,71.33
2022-10-19T08:09:51.348Z,70.74
2022-10-19T08:12:15.441Z,70.21
2022-10-19T08:14:42.435Z,69.64
2022-10-19T08:17:11.944Z,69.47
2022-10-19T08:19:43.410Z,67.90
2022-10-19T08:22:10.679Z,68.12
2022-10-19T08:24:37.508Z,66.22
2022-10-19T08:27:04.555Z,66.69
2022-10-19T08:29:32.123Z,66.52
2022-10-19T08:31:59.585Z,65.46
2022-10-19T08:34:26.699Z,65.10
2022-10-19T08:36:53.524Z,64.75
2022-10-19T08:39:20.326Z,61.84
2022-10-19T08:41:59.390Z,62.90
2022-10-19T08:44:34.769Z,61.39
2022-10-19T08:47:33.205Z,60.68
2022-10-19T08:50:01.401Z,60.35
2022-10-19T08:52:34.617Z,60.57
2022-10-19T08:55:15.091Z,59.90
2022-10-19T08:58:26.167Z,60.13
2022-10-19T09:01:02.336Z,59.27
2022-10-19T09:03:54.975Z,59.53
2022-10-19T09:06:48.512Z,59.49
2022-10-19T09:09:18.692Z,58.33
2022-10-19T09:11:48.304Z,56.15
2022-10-19T09:14:40.898Z,56.58
2022-10-19T09:17:15.253Z,56.26
2022-10-19T09:19:44.225Z,56.85
2022-10-19T09:22:21.533Z,57.23
2022-10-19T09:25:09.636Z,55.23
2022-10-19T09:27:39.531Z,57.19
2022-10-19T09:30:28.071Z,56.15
2022-10-19T09:33:02.636Z,56.35
2022-10-19T09:35:36.825Z,55.12
2022-10-19T09:38:05.580Z,55.26
2022-10-19T09:40:34.385Z,55.30
2022-10-19T09:43:09.505Z,55.35
2022-10-19T09:45:36.313Z,55.64
2022-10-19T09:48:13.194Z,54.66
2022-10-19T09:50:43.612Z,54.32
2022-10-19T09:53:19.257Z,53.05
2022-10-19T09:55:51.134Z,53.81
2022-10-19T09:58:20.201Z,53.09
2022-10-19T10:00:56.039Z,52.71
2022-10-19T10:03:29.085Z,52.74
2022-10-19T10:05:58.202Z,52.30
2022-10-19T10:08:27.479Z,50.43
2022-10-19T10:11:15.954Z,51.54
2022-10-19T10:13:44.950Z,50.19
2022-10-19T10:16:17.161Z,50.98
2022-10-19T10:18:55.572Z,47.84
2022-10-19T10:21:34.756Z,49.60
2022-10-19T10:24:25.072Z,49.76
2022-10-19T10:26:54.608Z,49.55
2022-10-19T10:29:34.297Z,49.54
2022-10-19T10:32:19.696Z,49.42
2022-10-19T10:34:58.380Z,49.24
2022-10-19T10:37:39.253Z,49.28
2022-10-19T10:40:24.241Z,48.96
2022-10-19T10:42:53.656Z,48.55
2022-10-19T10:45:29.611Z,48.87
2022-10-19T10:47:57.116Z,49.92
2022-10-19T10:50:32.727Z,49.76
2022-10-19T10:53:04.731Z,45.60
2022-10-19T10:55:32.425Z,44.91
2022-10-19T10:58:16.735Z,45.42
2022-10-19T11:00:44.738Z,46.11
2022-10-19T11:03:25.477Z,45.82
2022-10-19T11:06:11.959Z,45.24
2022-10-19T11:08:58.768Z,45.81
2022-10-19T11:11:47.823Z,45.80
2022-10-19T11:14:26.178Z,45.53
2022-10-19T11:16:54.392Z,45.96
2022-10-19T11:19:27.313Z,45.22
2022-10-19T11:22:09.130Z,44.81
2022-10-19T11:24:56.897Z,45.79
2022-10-19T11:27:42.441Z,46.82
2022-10-19T11:30:22.013Z,46.73
2022-10-19T11:32:57.870Z,46.36
2022-10-19T11:35:53.236Z,45.54
2022-10-19T11:38:48.323Z,45.80
2022-10-19T11:41:52.179Z,46.03
2022-10-19T11:44:43.521Z,46.05
2022-10-19T11:47:23.197Z,47.40
2022-10-19T11:50:22.678Z,47.54
2022-10-19T11:53:01.537Z,47.14
2022-10-19T11:55:40.306Z,47.20
2022-10-19T11:58:35.354Z,46.57
2022-10-19T12:01:29.971Z,46.83
2022-10-19T12:03:56.816Z,47.48
2022-10-19T12:06:35.528Z,47.25
2022-10-19T12:09:28.191Z,47.47
2022-10-19T12:12:02.725Z,47.58
2022-10-19T12:14:36.225Z,48.01
2022-10-19T12:17:09.360Z,47.44
2022-10-19T12:19:44.587Z,47.08
2022-10-19T12:22:16.244Z,47.02
2022-10-19T12:24:43.469Z,46.89
2022-10-19T12:27:15.729Z,47.25
2022-10-19T12:29:48.769Z,46.59
2022-10-19T12:32:17.299Z,47.06
2022-10-19T12:34:57.888Z,46.49
2022-10-19T12:37:30.862Z,47.42
2022-10-19T12:40:32.498Z,47.87
2022-10-19T12:43:09.073Z,47.94
2022-10-19T12:45:41.728Z,47.99
2022-10-19T12:48:08.493Z,48.06
2022-10-19T12:50:49.254Z,47.49
2022-10-19T12:56:06.229Z,47.86
2022-10-19T12:58:46.586Z,48.90
2022-10-19T13:01:24.964Z,48.25
2022-10-19T13:04:14.515Z,48.16
2022-10-19T13:06:49.605Z,48.55
2022-10-19T13:09:45.079Z,48.19
2022-10-19T13:12:17.881Z,48.15
2022-10-19T13:14:54.657Z,48.31
2022-10-19T13:17:46.522Z,48.58
2022-10-19T13:20:18.508Z,48.02
2022-10-19T13:22:51.312Z,47.76
2022-10-19T13:25:33.480Z,47.72
2022-10-19T13:28:06.413Z,45.95
2022-10-19T13:30:43.868Z,47.43
2022-10-19T13:33:28.381Z,46.50
2022-10-19T13:36:02.493Z,46.77
2022-10-19T13:38:30.010Z,46.87
2022-10-19T13:41:07.459Z,46.43
2022-10-19T13:43:41.979Z,46.78
2022-10-19T13:46:12.627Z,46.56
2022-10-19T13:48:50.167Z,46.87
2022-10-19T13:51:22.665Z,46.52
2022-10-19T13:54:25.718Z,47.12
2022-10-19T13:56:55.396Z,46.36
2022-10-19T13:59:43.610Z,46.28
2022-10-19T14:02:35.890Z,46.46
2022-10-19T14:05:02.775Z,46.26
2022-10-19T14:07:33.620Z,46.42
2022-10-19T14:10:25.178Z,46.51
2022-10-19T14:12:59.911Z,47.51
2022-10-19T14:15:33.243Z,47.59
2022-10-19T14:18:03.675Z,47.92
2022-10-19T14:20:35.717Z,47.62
2022-10-19T14:23:18.455Z,47.70
2022-10-19T14:25:54.107Z,48.95
2022-10-19T14:28:22.302Z,48.46
2022-10-19T14:31:00.810Z,49.20
2022-10-19T14:33:30.218Z,49.12
2022-10-19T14:35:57.288Z,49.32
2022-10-19T14:38:35.852Z,48.55
2022-10-19T14:41:03.939Z,48.54
2022-10-19T14:43:32.830Z,48.01
2022-10-19T14:46:06.660Z,48.25
2022-10-19T14:48:48.576Z,47.79
2022-10-19T14:51:31.066Z,47.97
2022-10-19T14:54:17.913Z,48.02
2022-10-19T14:56:57.977Z,48.52
2022-10-19T14:59:28.845Z,48.04
2022-10-19T15:02:01.463Z,48.51
2022-10-19T15:04:31.829Z,48.61
2022-10-19T15:06:59.657Z,48.97
2022-10-19T15:09:48.157Z,49.42
2022-10-19T15:12:29.589Z,49.71
2022-10-19T15:14:57.249Z,50.23
2022-10-19T15:17:33.189Z,50.06
2022-10-19T15:20:01.896Z,49.76
2022-10-19T15:22:32.127Z,50.12
2022-10-19T15:24:59.171Z,50.31
2022-10-19T15:27:33.808Z,50.73
2022-10-19T15:30:04.018Z,50.74
2022-10-19T15:32:37.147Z,50.94
2022-10-19T15:35:19.220Z,50.77
2022-10-19T15:37:48.709Z,50.74
2022-10-19T15:40:23.927Z,50.74
2022-10-19T15:42:50.706Z,51.30
2022-10-19T15:45:35.525Z,51.26
2022-10-19T15:48:25.589Z,52.03
2022-10-19T15:50:53.461Z,52.20
2022-10-19T15:53:22.075Z,52.73
2022-10-19T15:55:49.432Z,52.45
2022-10-19T15:58:16.410Z,52.81
2022-10-19T16:00:43.311Z,53.24
2022-10-19T16:03:10.058Z,53.50
2022-10-19T16:05:37.439Z,53.59
2022-10-19T16:08:08.858Z,54.34
2022-10-19T16:10:39.096Z,54.06
2022-10-19T16:13:05.970Z,54.11
2022-10-19T16:15:33.497Z,53.84
2022-10-19T16:18:00.595Z,54.16
2022-10-19T16:20:28.937Z,54.41
2022-10-19T16:22:56.487Z,54.40
2022-10-19T16:25:23.539Z,54.42
2022-10-19T16:27:50.440Z,55.07
2022-10-19T16:30:18.134Z,54.86
2022-10-19T16:32:48.016Z,55.05
2022-10-19T16:35:14.857Z,55.85
2022-10-19T16:37:41.744Z,55.55
2022-10-19T16:40:09.294Z,55.60
2022-10-19T16:42:37.107Z,55.70
2022-10-19T16:45:04.672Z,55.68
2022-10-19T16:47:31.791Z,55.46
2022-10-19T16:50:04.744Z,55.81
2022-10-19T16:52:33.208Z,56.44
2022-10-19T16:55:00.735Z,56.56
2022-10-19T16:57:27.606Z,56.73
2022-10-19T16:59:55.916Z,57.05
2022-10-19T17:02:23.206Z,56.87
2022-10-19T17:04:50.032Z,57.03
2022-10-19T17:07:17.469Z,57.30
2022-10-19T17:09:44.731Z,57.46
2022-10-19T17:12:11.724Z,57.65
2022-10-19T17:14:40.899Z,57.39
2022-10-19T17:17:09.087Z,57.97
2022-10-19T17:19:37.732Z,58.00
2022-10-19T17:22:05.549Z,58.40
2022-10-19T17:24:32.884Z,58.50
2022-10-19T17:27:02.182Z,58.68
2022-10-19T17:29:29.453Z,59.13
2022-10-19T17:31:56.318Z,59.49
2022-10-19T17:34:23.519Z,59.99
2022-10-19T17:36:50.893Z,60.37
2022-10-19T17:39:21.437Z,60.60
2022-10-19T17:41:52.616Z,61.18
2022-10-19T17:44:21.024Z,61.49
2022-10-19T17:46:48.150Z,61.90
2022-10-19T17:49:16.505Z,62.28
2022-10-19T17:51:43.705Z,62.46
2022-10-19T17:54:14.341Z,62.94
2022-10-19T17:56:41.895Z,63.51
2022-10-19T17:59:09.355Z,63.20
2022-10-19T18:01:37.152Z,63.42
2022-10-19T18:04:04.980Z,63.80
2022-10-19T18:06:34.945Z,64.08
2022-10-19T18:09:05.695Z,63.89
2022-10-19T18:11:39.615Z,64.78
2022-10-19T18:14:08.328Z,65.00
2022-10-19T18:16:38.117Z,64.64
2022-10-19T18:19:05.890Z,64.60
2022-10-19T18:21:38.453Z,65.05
2022-10-19T18:24:09.043Z,64.99
2022-10-19T18:26:45.777Z,65.48
2022-10-19T18:29:25.426Z,65.53
2022-10-19T18:31:52.731Z,65.23
2022-10-19T18:34:23.237Z,64.36
2022-10-19T18:36:50.865Z,62.38
2022-10-19T18:39:18.608Z,61.56
2022-10-19T18:41:45.832Z,60.84
2022-10-19T18:44:13.323Z,60.53
2022-10-19T18:46:40.861Z,60.74
2022-10-19T18:49:08.925Z,61.25
2022-10-19T18:51:36.381Z,62.38
2022-10-19T18:54:03.944Z,62.89
2022-10-19T18:56:33.371Z,63.17
2022-10-19T18:59:00.386Z,63.06
2022-10-19T19:01:29.188Z,63.12
2022-10-19T19:03:58.781Z,63.40
2022-10-19T19:06:33.653Z,63.68
2022-10-19T19:09:03.319Z,63.89
2022-10-19T19:11:35.940Z,64.70
2022-10-19T19:14:12.157Z,64.81
2022-10-19T19:16:39.545Z,66.18
2022-10-19T19:19:07.487Z,66.10
2022-10-19T19:21:36.612Z,66.43
2022-10-19T19:24:05.994Z,66.38
2022-10-19T19:26:36.927Z,66.40
2022-10-19T19:29:04.825Z,66.02
2022-10-19T19:31:33.509Z,64.83
2022-10-19T19:34:01.223Z,64.92
2022-10-19T19:36:28.891Z,64.60
2022-10-19T19:38:56.788Z,65.03
2022-10-19T19:41:23.888Z,64.79
2022-10-19T19:43:50.958Z,64.05
2022-10-19T19:46:19.387Z,64.59
2022-10-19T19:48:47.829Z,64.39
2022-10-19T19:51:17.812Z,64.44
2022-10-19T19:53:45.434Z,63.61
2022-10-19T19:56:14.123Z,63.56
2022-10-19T19:58:41.989Z,64.12
2022-10-19T20:01:16.546Z,63.91
2022-10-19T20:03:44.237Z,64.21
2022-10-19T20:06:12.236Z,64.31
2022-10-19T20:08:39.486Z,64.31
2022-10-19T20:11:09.583Z,64.50
2022-10-19T20:13:36.901Z,64.66
2022-10-19T20:16:12.552Z,64.81
2022-10-19T20:18:47.014Z,65.52
2022-10-19T20:21:15.051Z,65.43
2022-10-19T20:23:45.998Z,65.68
2022-10-19T20:26:22.053Z,66.63
2022-10-19T20:28:50.810Z,67.11
2022-10-19T20:31:19.513Z,66.72
2022-10-19T20:33:48.156Z,68.02
2022-10-19T20:36:21.894Z,67.77
2022-10-19T20:38:52.071Z,69.21
2022-10-19T20:41:20.763Z,70.44
2022-10-19T20:43:47.588Z,70.40
2022-10-19T20:46:17.826Z,70.91
2022-10-19T20:48:45.462Z,70.77
2022-10-19T20:51:26.058Z,69.87
2022-10-19T20:53:57.340Z,70.33
2022-10-19T20:56:29.392Z,70.00
2022-10-19T20:58:58.790Z,70.98
2022-10-19T21:01:26.264Z,71.60
2022-10-19T21:03:54.994Z,70.96
2022-10-19T21:06:24.585Z,70.97
2022-10-19T21:08:52.473Z,73.05
2022-10-19T21:11:22.285Z,72.31
2022-10-19T21:13:53.128Z,71.89
2022-10-19T21:16:20.842Z,74.66
2022-10-19T21:18:48.502Z,74.02
2022-10-19T21:21:18.153Z,74.16
2022-10-19T21:23:47.036Z,73.67
2022-10-19T21:26:14.452Z,73.61
2022-10-19T21:28:46.237Z,75.98
2022-10-19T21:31:13.283Z,76.60
2022-10-19T21:33:40.030Z,75.73
2022-10-19T21:36:07.865Z,75.47
2022-10-19T21:38:34.754Z,75.09
2022-10-19T21:41:07.011Z,75.22
2022-10-19T21:43:34.148Z,74.98
2022-10-19T21:46:12.433Z,75.12
2022-10-19T21:48:39.884Z,76.06
2022-10-19T21:51:34.699Z,75.64
2022-10-19T21:54:02.270Z,76.69
2022-10-19T21:56:29.575Z,77.09
2022-10-19T21:58:56.571Z,76.90
2022-10-19T22:01:27.491Z,77.30
2022-10-19T22:04:01.217Z,78.88
2022-10-19T22:06:29.321Z,79.45
2022-10-19T22:08:57.670Z,78.17
2022-10-19T22:11:25.199Z,78.12
2022-10-19T22:14:00.192Z,78.37
2022-10-19T22:16:27.816Z,79.10
2022-10-19T22:18:55.378Z,78.23
2022-10-19T22:21:25.483Z,77.30
2022-10-19T22:24:00.656Z,79.06
2022-10-19T22:26:30.895Z,79.73
2022-10-19T22:28:59.364Z,79.13
2022-10-19T22:31:27.548Z,79.40
2022-10-19T22:33:54.314Z,78.77
2022-10-19T22:36:21.370Z,78.63
2022-10-19T22:38:48.281Z,78.21
2022-10-19T22:41:15.079Z,78.23
2022-10-19T22:43:41.831Z,79.35
2022-10-19T22:46:08.631Z,80.10
2022-10-19T22:48:35.438Z,79.69
2022-10-19T22:51:02.530Z,79.18
2022-10-19T22:53:29.512Z,78.98
2022-10-19T22:55:56.364Z,78.75
2022-10-19T22:58:23.457Z,79.15
2022-10-19T23:01:05.010Z,79.67
2022-10-19T23:03:32.266Z,79.74
2022-10-19T23:05:59.305Z,79.30
2022-10-19T23:08:26.875Z,79.51
2022-10-19T23:10:53.951Z,79.34
2022-10-19T23:13:20.791Z,79.19
2022-10-19T23:15:47.652Z,79.07
2022-10-19T23:18:14.545Z,79.26
2022-10-19T23:20:41.638Z,79.21
2022-10-19T23:23:09.224Z,79.28
2022-10-19T23:25:36.642Z,79.28
2022-10-19T23:28:03.432Z,79.49
2022-10-19T23:30:30.332Z,80.46
2022-10-19T23:32:57.257Z,80.00
2022-10-19T23:35:24.117Z,80.91
2022-10-19T23:37:50.971Z,80.65
2022-10-19T23:40:18.254Z,80.40
2022-10-19T23:42:45.084Z,80.39
2022-10-19T23:45:13.122Z,80.54
2022-10-19T23:47:40.029Z,80.30
2022-10-19T23:50:09.404Z,80.33
2022-10-19T23:52:36.417Z,80.34
2022-10-19T23:55:03.428Z,80.32
2022-10-19T23:57:30.292Z,80.05
2022-10-19T23:59:57.156Z,79.91
